Terminal Aerodrome Forecast
Issued by NWS

Home | Current Version | Previous Version | Text Only | Print | Product List | Glossary On
Versions: 1 2 3 4 5 6 7 8 9 10 11 12 13 14 15 16 17 18 19
000
FTUS45 KABQ 241139
TAFAEG
TAF
KAEG 241139Z 2412/2512 31007KT P6SM SCT080 SCT200
     FM241600 28010KT P6SM SCT080
     FM242000 28012G20KT P6SM VCSH SCT060 BKN090
     FM250300 32007KT P6SM BKN100=

USA.gov is the U.S. government's official web portal to all federal, state and local government web resources and services.